createdAt,value
2023-05-22T00:00:14.140Z,51.88
2023-05-22T00:02:43.643Z,51.89
2023-05-22T00:05:12.332Z,52.00
2023-05-22T00:07:40.523Z,52.22
2023-05-22T00:10:09.006Z,52.21
2023-05-22T00:12:36.966Z,52.18
2023-05-22T00:15:07.346Z,52.13
2023-05-22T00:17:35.480Z,52.17
2023-05-22T00:20:04.500Z,52.19
2023-05-22T00:22:35.638Z,52.08
2023-05-22T00:25:03.997Z,52.23
2023-05-22T00:27:31.972Z,52.22
2023-05-22T00:30:00.198Z,52.49
2023-05-22T00:32:29.726Z,52.73
2023-05-22T00:34:57.821Z,52.67
2023-05-22T00:37:26.377Z,52.78
2023-05-22T00:39:54.422Z,52.92
2023-05-22T00:42:22.548Z,52.75
2023-05-22T00:44:50.589Z,52.83
2023-05-22T00:47:18.676Z,52.80
2023-05-22T00:49:47.971Z,52.55
2023-05-22T00:52:17.729Z,52.27
2023-05-22T00:54:48.608Z,52.51
2023-05-22T00:57:16.581Z,52.41
2023-05-22T00:59:44.674Z,52.19
2023-05-22T01:02:13.538Z,52.11
2023-05-22T01:04:42.965Z,52.41
2023-05-22T01:07:12.315Z,52.53
2023-05-22T01:09:40.250Z,52.64
2023-05-22T01:12:12.912Z,52.60
2023-05-22T01:14:44.867Z,52.44
2023-05-22T01:17:23.596Z,52.50
2023-05-22T01:20:01.577Z,52.61
2023-05-22T01:22:42.549Z,52.57
2023-05-22T01:25:28.689Z,52.76
2023-05-22T01:28:08.667Z,52.72
2023-05-22T01:30:51.416Z,52.96
2023-05-22T01:33:19.736Z,52.95
2023-05-22T01:35:50.080Z,52.96
2023-05-22T01:38:18.017Z,52.98
2023-05-22T01:40:46.249Z,53.04
2023-05-22T01:43:14.439Z,52.97
2023-05-22T01:45:42.465Z,53.01
2023-05-22T01:48:16.774Z,53.20
2023-05-22T01:50:45.437Z,53.31
2023-05-22T01:53:15.293Z,53.26
2023-05-22T01:55:46.923Z,53.34
2023-05-22T01:58:22.392Z,53.27
2023-05-22T02:00:51.640Z,53.32
2023-05-22T02:03:22.791Z,53.38
2023-05-22T02:05:53.117Z,53.36
2023-05-22T02:08:21.485Z,53.40
2023-05-22T02:10:50.189Z,53.48
2023-05-22T02:13:18.132Z,53.41
2023-05-22T02:15:46.776Z,53.54
2023-05-22T02:18:15.108Z,53.69
2023-05-22T02:20:44.425Z,53.54
2023-05-22T02:23:12.451Z,53.40
2023-05-22T02:25:40.827Z,53.53
2023-05-22T02:28:08.836Z,53.64
2023-05-22T02:30:36.990Z,53.67
2023-05-22T02:33:06.671Z,53.90
2023-05-22T02:35:34.706Z,53.84
2023-05-22T02:38:04.074Z,53.95
2023-05-22T02:40:32.020Z,54.35
2023-05-22T02:42:59.984Z,54.28
2023-05-22T02:45:27.981Z,54.18
2023-05-22T02:47:56.248Z,54.14
2023-05-22T02:50:24.265Z,54.20
2023-05-22T02:52:52.257Z,54.44
2023-05-22T02:55:21.790Z,54.51
2023-05-22T02:57:49.867Z,54.52
2023-05-22T03:00:18.888Z,54.48
2023-05-22T03:02:47.409Z,54.67
2023-05-22T03:05:18.022Z,54.61
2023-05-22T03:07:48.684Z,54.81
2023-05-22T03:10:16.965Z,54.52
2023-05-22T03:12:46.281Z,54.51
2023-05-22T03:15:14.389Z,54.37
2023-05-22T03:17:42.395Z,54.60
2023-05-22T03:20:11.212Z,54.60
2023-05-22T03:22:39.182Z,54.80
2023-05-22T03:25:09.496Z,54.91
2023-05-22T03:27:37.498Z,54.78
2023-05-22T03:30:08.334Z,54.69
2023-05-22T03:32:37.768Z,54.73
2023-05-22T03:35:07.070Z,54.48
2023-05-22T03:37:35.066Z,54.60
2023-05-22T03:40:04.273Z,54.57
2023-05-22T03:42:32.321Z,54.49
2023-05-22T03:45:00.285Z,54.61
2023-05-22T03:47:29.799Z,54.47
2023-05-22T03:49:57.756Z,54.25
2023-05-22T03:52:26.173Z,54.58
2023-05-22T03:54:54.499Z,54.43
2023-05-22T03:57:22.475Z,54.20
2023-05-22T03:59:50.473Z,54.49
2023-05-22T04:02:18.551Z,54.33
2023-05-22T04:04:48.189Z,54.64
2023-05-22T04:07:18.568Z,54.49
2023-05-22T04:09:46.644Z,54.52
2023-05-22T04:12:14.683Z,54.48
2023-05-22T04:14:42.589Z,54.56
2023-05-22T04:17:11.712Z,54.42
2023-05-22T04:19:39.652Z,54.05
2023-05-22T04:22:09.405Z,53.57
2023-05-22T04:24:39.799Z,53.31
2023-05-22T04:27:07.976Z,53.12
2023-05-22T04:29:36.388Z,52.96
2023-05-22T04:32:06.324Z,52.72
2023-05-22T04:34:37.438Z,52.64
2023-05-22T04:37:06.233Z,52.59
2023-05-22T04:39:35.599Z,52.43
2023-05-22T04:42:06.023Z,52.42
2023-05-22T04:44:34.502Z,52.49
2023-05-22T04:47:06.030Z,52.38
2023-05-22T04:49:42.314Z,52.36
2023-05-22T04:52:11.709Z,52.30
2023-05-22T04:54:41.488Z,52.20
2023-05-22T04:57:09.536Z,52.15
2023-05-22T04:59:39.266Z,52.15
2023-05-22T05:02:07.351Z,52.35
2023-05-22T05:04:35.253Z,52.20
2023-05-22T05:07:03.635Z,52.08
2023-05-22T05:09:31.683Z,51.86
2023-05-22T05:12:01.140Z,52.00
2023-05-22T05:14:29.043Z,51.84
2023-05-22T05:16:57.175Z,51.95
2023-05-22T05:19:25.302Z,51.79
2023-05-22T05:21:53.495Z,51.88
2023-05-22T05:24:21.600Z,51.76
2023-05-22T05:26:49.639Z,51.78
2023-05-22T05:29:19.081Z,51.87
2023-05-22T05:31:47.052Z,52.44
2023-05-22T05:34:15.023Z,52.46
2023-05-22T05:36:43.256Z,52.47
2023-05-22T05:39:11.181Z,52.50
2023-05-22T05:41:39.156Z,52.47
2023-05-22T05:44:07.724Z,52.53
2023-05-22T05:46:37.136Z,52.55
2023-05-22T05:49:10.144Z,52.42
2023-05-22T05:51:38.186Z,52.49
2023-05-22T05:54:06.497Z,52.62
2023-05-22T05:56:34.612Z,52.59
2023-05-22T05:59:02.686Z,52.73
2023-05-22T06:01:32.944Z,52.58
2023-05-22T06:04:04.297Z,52.56
2023-05-22T06:06:35.693Z,52.57
2023-05-22T06:09:05.618Z,52.59
2023-05-22T06:11:33.620Z,52.35
2023-05-22T06:14:02.998Z,52.51
2023-05-22T06:16:31.262Z,52.63
2023-05-22T06:18:59.501Z,52.63
2023-05-22T06:21:28.921Z,52.78
2023-05-22T06:23:57.387Z,52.74
2023-05-22T06:26:25.976Z,52.71
2023-05-22T06:28:54.390Z,52.55
2023-05-22T06:31:23.306Z,52.59
2023-05-22T06:33:51.917Z,52.69
2023-05-22T06:36:20.169Z,52.47
2023-05-22T06:38:49.721Z,52.40
2023-05-22T06:41:17.720Z,52.43
2023-05-22T06:43:45.675Z,52.37
2023-05-22T06:46:13.659Z,52.25
2023-05-22T06:48:42.071Z,52.29
2023-05-22T06:51:11.726Z,52.06
2023-05-22T06:53:39.788Z,52.25
2023-05-22T06:56:09.422Z,52.04
2023-05-22T06:58:37.458Z,52.00
2023-05-22T07:01:05.933Z,51.92
2023-05-22T07:03:34.015Z,51.87
2023-05-22T07:06:02.434Z,51.58
2023-05-22T07:08:30.836Z,51.69
2023-05-22T07:10:59.011Z,51.41
2023-05-22T07:13:32.046Z,51.51
2023-05-22T07:16:00.190Z,51.46
2023-05-22T07:18:28.202Z,51.48
2023-05-22T07:20:56.292Z,51.32
2023-05-22T07:23:25.616Z,51.44
2023-05-22T07:25:54.453Z,51.24
2023-05-22T07:28:22.405Z,51.26
2023-05-22T07:30:51.984Z,51.11
2023-05-22T07:33:19.985Z,50.98
2023-05-22T07:35:47.911Z,50.86
2023-05-22T07:38:15.852Z,50.77
2023-05-22T07:40:43.817Z,50.82
2023-05-22T07:43:11.790Z,50.62
2023-05-22T07:45:40.255Z,50.73
2023-05-22T07:48:09.841Z,50.68
2023-05-22T07:50:37.996Z,50.59
2023-05-22T07:53:06.483Z,50.44
2023-05-22T07:55:34.488Z,50.40
2023-05-22T07:58:04.209Z,50.23
2023-05-22T08:00:32.398Z,50.15
2023-05-22T08:03:00.776Z,50.04
2023-05-22T08:05:30.333Z,49.94
2023-05-22T08:07:58.629Z,50.09
2023-05-22T08:10:30.001Z,50.05
2023-05-22T08:13:06.318Z,49.76
2023-05-22T08:15:34.445Z,50.01
2023-05-22T08:18:02.564Z,49.52
2023-05-22T08:20:32.327Z,49.79
2023-05-22T08:23:00.384Z,49.69
2023-05-22T08:25:28.349Z,49.58
2023-05-22T08:27:56.336Z,49.24
2023-05-22T08:30:24.344Z,49.41
2023-05-22T08:32:52.423Z,49.68
2023-05-22T08:35:20.395Z,49.35
2023-05-22T08:37:49.822Z,49.45
2023-05-22T08:40:17.804Z,49.47
2023-05-22T08:42:46.184Z,49.43
2023-05-22T08:45:16.240Z,49.28
2023-05-22T08:47:45.025Z,49.37
2023-05-22T08:50:13.258Z,49.29
2023-05-22T08:52:48.104Z,49.05
2023-05-22T08:55:19.488Z,49.28
2023-05-22T08:57:47.581Z,48.96
2023-05-22T09:00:16.988Z,49.24
2023-05-22T09:02:45.305Z,49.01
2023-05-22T09:05:13.538Z,49.24
2023-05-22T09:07:41.488Z,48.80
2023-05-22T09:10:09.866Z,49.03
2023-05-22T09:12:39.220Z,48.83
2023-05-22T09:15:11.158Z,48.76
2023-05-22T09:17:40.748Z,49.02
2023-05-22T09:20:13.328Z,48.76
2023-05-22T09:22:41.862Z,48.90
2023-05-22T09:25:10.350Z,48.53
2023-05-22T09:27:39.838Z,48.76
2023-05-22T09:30:08.869Z,48.51
2023-05-22T09:32:36.911Z,48.45
2023-05-22T09:35:05.340Z,48.25
2023-05-22T09:37:34.846Z,48.34
2023-05-22T09:40:06.044Z,48.16
2023-05-22T09:42:34.622Z,48.54
2023-05-22T09:45:08.379Z,48.34
2023-05-22T09:47:36.479Z,48.50
2023-05-22T09:50:07.207Z,48.40
2023-05-22T09:52:35.944Z,48.72
2023-05-22T09:55:04.869Z,48.46
2023-05-22T09:57:33.924Z,48.65
2023-05-22T10:00:02.114Z,48.81
2023-05-22T10:02:31.866Z,48.94
2023-05-22T10:04:59.829Z,48.57
2023-05-22T10:07:31.438Z,48.48
2023-05-22T10:10:03.374Z,48.92
2023-05-22T10:12:31.898Z,48.59
2023-05-22T10:15:00.179Z,48.71
2023-05-22T10:17:28.145Z,48.72
2023-05-22T10:20:01.127Z,49.17
2023-05-22T10:22:29.068Z,48.98
2023-05-22T10:24:57.052Z,48.85
2023-05-22T10:27:25.121Z,49.07
2023-05-22T10:29:55.876Z,48.93
2023-05-22T10:32:27.171Z,49.03
2023-05-22T10:35:00.750Z,49.32
2023-05-22T10:37:38.284Z,49.40
2023-05-22T10:40:08.221Z,49.11
2023-05-22T10:42:36.197Z,48.90
2023-05-22T10:45:05.069Z,49.30
2023-05-22T10:47:34.471Z,49.24
2023-05-22T10:50:08.732Z,49.66
2023-05-22T10:52:36.777Z,49.14
2023-05-22T10:55:07.553Z,49.54
2023-05-22T10:57:35.721Z,49.34
2023-05-22T11:00:11.592Z,49.31
2023-05-22T11:02:43.576Z,49.77
2023-05-22T11:05:38.206Z,49.75
2023-05-22T11:10:56.033Z,49.62
2023-05-22T11:13:29.108Z,49.81
2023-05-22T11:15:58.278Z,49.36
2023-05-22T11:18:29.487Z,49.51
2023-05-22T11:21:00.269Z,49.18
2023-05-22T11:23:28.270Z,49.42
2023-05-22T11:25:56.264Z,49.53
2023-05-22T11:28:24.457Z,49.14
2023-05-22T11:30:52.503Z,49.23
2023-05-22T11:33:20.592Z,49.27
2023-05-22T11:35:49.254Z,49.33
2023-05-22T11:38:18.629Z,49.21
2023-05-22T11:40:46.585Z,49.01
2023-05-22T11:43:14.613Z,49.42
2023-05-22T11:45:42.581Z,48.92
2023-05-22T11:48:13.351Z,49.34
2023-05-22T11:50:44.407Z,48.99
2023-05-22T11:53:12.594Z,49.15
2023-05-22T11:55:43.698Z,49.52
2023-05-22T11:58:11.776Z,49.57
2023-05-22T12:00:39.952Z,49.22
2023-05-22T12:03:08.197Z,49.65
2023-05-22T12:05:39.356Z,49.51
2023-05-22T12:08:10.401Z,49.37
2023-05-22T12:10:38.471Z,49.67
2023-05-22T12:13:08.216Z,49.64
2023-05-22T12:15:36.151Z,49.60
2023-05-22T12:18:04.353Z,48.98
2023-05-22T12:20:32.320Z,49.57
2023-05-22T12:23:00.332Z,50.18
2023-05-22T12:25:34.548Z,49.28
2023-05-22T12:28:08.433Z,49.67
2023-05-22T12:30:42.774Z,49.34
2023-05-22T12:33:15.310Z,49.27
2023-05-22T12:35:43.421Z,49.43
2023-05-22T12:38:13.540Z,49.00
2023-05-22T12:40:41.728Z,49.04
2023-05-22T12:43:11.133Z,49.30
2023-05-22T12:45:41.335Z,49.29
2023-05-22T12:48:09.886Z,49.23
2023-05-22T12:50:38.083Z,49.33
2023-05-22T12:53:06.211Z,48.91
2023-05-22T12:55:34.175Z,49.48
2023-05-22T12:58:02.213Z,49.33
2023-05-22T13:00:32.017Z,49.61
2023-05-22T13:03:00.109Z,49.26
2023-05-22T13:05:28.195Z,49.45
2023-05-22T13:07:56.176Z,49.44
2023-05-22T13:10:24.124Z,48.85
2023-05-22T13:12:52.284Z,49.32
2023-05-22T13:15:20.269Z,49.15
2023-05-22T13:17:49.606Z,49.18
2023-05-22T13:20:17.642Z,49.08
2023-05-22T13:22:45.795Z,49.12
2023-05-22T13:25:14.117Z,48.99
2023-05-22T13:27:42.216Z,49.04
2023-05-22T13:30:10.944Z,49.63
2023-05-22T13:32:38.932Z,49.31
2023-05-22T13:35:09.114Z,48.92
2023-05-22T13:37:37.171Z,48.95
2023-05-22T13:40:05.802Z,49.34
2023-05-22T13:42:33.830Z,49.17
2023-05-22T13:45:01.804Z,48.98
2023-05-22T13:47:32.314Z,49.13
2023-05-22T13:50:03.185Z,48.99
2023-05-22T13:52:32.692Z,49.09
2023-05-22T13:55:01.399Z,49.10
2023-05-22T13:57:29.352Z,48.92
2023-05-22T13:59:57.438Z,48.57
2023-05-22T14:02:25.562Z,48.83
2023-05-22T14:04:53.584Z,48.91
2023-05-22T14:07:21.519Z,48.53
2023-05-22T14:09:51.099Z,48.79
2023-05-22T14:12:19.197Z,48.36
2023-05-22T14:14:47.109Z,48.71
2023-05-22T14:17:15.142Z,48.47
2023-05-22T14:19:43.098Z,48.71
2023-05-22T14:22:11.096Z,48.37
2023-05-22T14:24:39.057Z,48.76
2023-05-22T14:27:08.598Z,48.17
2023-05-22T14:29:36.548Z,48.40
2023-05-22T14:32:05.565Z,48.70
2023-05-22T14:34:33.763Z,48.52
2023-05-22T14:37:01.752Z,48.76
2023-05-22T14:39:29.716Z,48.63
2023-05-22T14:41:57.669Z,48.81
2023-05-22T14:44:27.039Z,48.93
2023-05-22T14:46:55.161Z,48.58
2023-05-22T14:49:23.122Z,48.55
2023-05-22T14:51:51.080Z,48.90
2023-05-22T14:54:19.340Z,49.01
2023-05-22T14:56:47.433Z,48.63
2023-05-22T14:59:15.486Z,48.77
2023-05-22T15:01:49.960Z,49.11
2023-05-22T15:04:18.164Z,49.22
2023-05-22T15:06:46.230Z,48.88
2023-05-22T15:09:14.140Z,49.05
2023-05-22T15:11:46.830Z,49.18
2023-05-22T15:14:14.752Z,48.91
2023-05-22T15:16:44.281Z,48.81
2023-05-22T15:19:12.442Z,49.21
2023-05-22T15:21:42.169Z,49.02
2023-05-22T15:24:10.190Z,48.79
2023-05-22T15:26:38.160Z,49.22
2023-05-22T15:29:06.149Z,49.07
2023-05-22T15:31:34.182Z,48.92
2023-05-22T15:34:03.545Z,49.20
2023-05-22T15:36:33.122Z,49.08
2023-05-22T15:39:01.097Z,49.08
2023-05-22T15:41:29.033Z,49.24
2023-05-22T15:43:57.161Z,48.89
2023-05-22T15:46:25.235Z,49.24
2023-05-22T15:48:53.261Z,49.26
2023-05-22T15:51:25.652Z,49.25
2023-05-22T15:53:53.618Z,49.11
2023-05-22T15:56:21.606Z,49.19
2023-05-22T15:58:49.562Z,49.30
2023-05-22T16:01:18.367Z,49.37
2023-05-22T16:03:46.531Z,49.19
2023-05-22T16:06:15.309Z,49.80
2023-05-22T16:08:44.671Z,49.34
2023-05-22T16:11:12.899Z,49.77
2023-05-22T16:13:40.995Z,50.24
2023-05-22T16:16:09.173Z,49.63
2023-05-22T16:18:37.201Z,49.59
2023-05-22T16:21:05.507Z,49.66
2023-05-22T16:23:33.546Z,49.39
2023-05-22T16:26:02.783Z,49.67
2023-05-22T16:28:30.739Z,49.46
2023-05-22T16:30:58.707Z,50.11
2023-05-22T16:33:27.981Z,49.86
2023-05-22T16:35:56.629Z,49.78
2023-05-22T16:38:46.706Z,49.65
2023-05-22T16:41:16.956Z,50.23
2023-05-22T16:43:44.965Z,50.08
2023-05-22T16:46:12.950Z,49.96
2023-05-22T16:48:40.936Z,50.00
2023-05-22T16:51:11.333Z,49.64
2023-05-22T16:53:41.013Z,50.06
2023-05-22T16:56:09.147Z,50.19
2023-05-22T16:58:38.499Z,50.26
2023-05-22T17:01:07.347Z,50.46
2023-05-22T17:03:35.429Z,50.51
2023-05-22T17:06:03.694Z,50.60
2023-05-22T17:08:32.173Z,50.59
2023-05-22T17:11:00.157Z,50.34
2023-05-22T17:13:28.144Z,50.68
2023-05-22T17:15:57.513Z,50.62
2023-05-22T17:18:25.533Z,50.58
2023-05-22T17:20:55.825Z,50.42
2023-05-22T17:23:23.809Z,50.68
2023-05-22T17:25:51.918Z,50.57
2023-05-22T17:28:19.956Z,50.64
2023-05-22T17:30:48.287Z,50.96
2023-05-22T17:33:18.127Z,51.11
2023-05-22T17:35:46.277Z,51.18
2023-05-22T17:38:14.195Z,50.96
2023-05-22T17:40:45.422Z,50.90
2023-05-22T17:43:14.137Z,51.12
2023-05-22T17:45:44.525Z,50.82
2023-05-22T17:48:14.568Z,51.23
2023-05-22T17:50:44.260Z,51.41
2023-05-22T17:53:17.890Z,51.74
2023-05-22T17:55:46.799Z,51.83
2023-05-22T17:58:15.011Z,51.85
2023-05-22T18:00:43.037Z,52.07
2023-05-22T18:03:12.212Z,52.17
2023-05-22T18:05:40.241Z,52.09
2023-05-22T18:08:09.592Z,51.95
2023-05-22T18:10:38.185Z,52.40
2023-05-22T18:13:06.471Z,52.62
2023-05-22T18:15:34.380Z,52.66
2023-05-22T18:18:02.357Z,52.71
2023-05-22T18:20:31.614Z,52.70
2023-05-22T18:22:59.601Z,52.69
2023-05-22T18:25:29.082Z,53.07
2023-05-22T18:27:57.093Z,52.75
2023-05-22T18:30:25.144Z,53.04
2023-05-22T18:32:53.179Z,52.82
2023-05-22T18:35:21.204Z,52.81
2023-05-22T18:37:49.316Z,53.25
2023-05-22T18:40:17.575Z,52.98
2023-05-22T18:42:46.921Z,53.33
2023-05-22T18:45:14.890Z,53.46
2023-05-22T18:47:42.949Z,53.60
2023-05-22T18:50:11.891Z,53.65
2023-05-22T18:52:40.045Z,53.63
2023-05-22T18:55:08.362Z,53.62
2023-05-22T18:57:36.380Z,53.88
2023-05-22T19:00:07.158Z,53.70
2023-05-22T19:02:35.279Z,53.79
2023-05-22T19:05:04.535Z,54.07
2023-05-22T19:07:32.672Z,53.76
2023-05-22T19:10:00.638Z,53.85
2023-05-22T19:12:31.710Z,53.99
2023-05-22T19:14:59.976Z,53.80
2023-05-22T19:17:29.409Z,54.09
2023-05-22T19:19:57.393Z,54.09
2023-05-22T19:22:25.620Z,53.77
2023-05-22T19:24:53.550Z,53.91
2023-05-22T19:27:21.566Z,53.88
2023-05-22T19:29:49.522Z,53.86
2023-05-22T19:32:17.493Z,54.25
2023-05-22T19:34:47.561Z,54.19
2023-05-22T19:37:15.553Z,54.05
2023-05-22T19:39:43.530Z,54.32
2023-05-22T19:42:12.300Z,54.01
2023-05-22T19:44:40.261Z,54.23
2023-05-22T19:47:08.863Z,54.35
2023-05-22T19:49:37.363Z,54.36
2023-05-22T19:52:07.174Z,54.18
2023-05-22T19:54:35.652Z,54.24
2023-05-22T19:57:04.032Z,54.43
2023-05-22T19:59:32.900Z,54.28
2023-05-22T20:02:01.600Z,54.65
2023-05-22T20:04:30.319Z,54.50
2023-05-22T20:06:58.792Z,54.51
2023-05-22T20:09:28.220Z,54.49
2023-05-22T20:11:56.183Z,54.85
2023-05-22T20:14:24.176Z,54.62
2023-05-22T20:16:52.193Z,54.62
2023-05-22T20:19:20.604Z,54.96
2023-05-22T20:21:50.001Z,54.90
2023-05-22T20:24:18.986Z,54.84
2023-05-22T20:26:48.321Z,54.83
2023-05-22T20:29:16.315Z,54.58
2023-05-22T20:31:44.355Z,54.73
2023-05-22T20:34:12.364Z,54.60
2023-05-22T20:36:40.861Z,54.88
2023-05-22T20:39:09.406Z,54.97
2023-05-22T20:41:38.476Z,54.87
2023-05-22T20:44:08.338Z,54.97
2023-05-22T20:46:36.424Z,54.90
2023-05-22T20:49:04.916Z,55.13
2023-05-22T20:51:33.612Z,55.01
2023-05-22T20:54:01.808Z,55.06
2023-05-22T20:56:30.100Z,54.96
2023-05-22T20:58:58.085Z,55.19
2023-05-22T21:01:27.487Z,54.84
2023-05-22T21:03:56.478Z,55.15
2023-05-22T21:06:24.602Z,55.18
2023-05-22T21:08:54.250Z,55.23
2023-05-22T21:11:22.367Z,55.45
2023-05-22T21:13:50.346Z,55.62
2023-05-22T21:16:18.455Z,56.04
2023-05-22T21:18:47.847Z,55.43
2023-05-22T21:21:16.340Z,55.21
2023-05-22T21:23:48.050Z,55.72
2023-05-22T21:26:16.732Z,55.55
2023-05-22T21:28:44.830Z,55.50
2023-05-22T21:31:12.804Z,55.60
2023-05-22T21:33:43.644Z,55.45
2023-05-22T21:36:12.920Z,55.89
2023-05-22T21:38:41.154Z,55.67
2023-05-22T21:41:09.028Z,55.73
2023-05-22T21:43:36.876Z,55.83
2023-05-22T21:46:05.228Z,55.90
2023-05-22T21:48:33.320Z,55.90
2023-05-22T21:51:01.429Z,56.02
2023-05-22T21:53:30.904Z,55.97
2023-05-22T21:55:58.882Z,56.03
2023-05-22T21:58:26.939Z,56.26
2023-05-22T22:00:54.907Z,56.12
2023-05-22T22:03:23.009Z,55.95
2023-05-22T22:05:51.162Z,55.88
2023-05-22T22:08:19.139Z,56.04
2023-05-22T22:10:48.600Z,56.05
2023-05-22T22:13:16.684Z,56.05
2023-05-22T22:15:44.722Z,56.16
2023-05-22T22:18:14.934Z,56.15
2023-05-22T22:20:45.317Z,56.35
2023-05-22T22:23:13.653Z,56.19
2023-05-22T22:25:41.671Z,56.35
2023-05-22T22:28:11.438Z,56.37
2023-05-22T22:30:39.743Z,56.53
2023-05-22T22:33:08.161Z,56.23
2023-05-22T22:35:36.218Z,56.31
2023-05-22T22:38:04.214Z,56.23
2023-05-22T22:40:32.263Z,56.20
2023-05-22T22:43:00.205Z,56.25
2023-05-22T22:45:29.547Z,56.15
2023-05-22T22:47:57.528Z,56.14
2023-05-22T22:50:25.570Z,56.11
2023-05-22T22:52:53.643Z,56.14
2023-05-22T22:55:21.923Z,56.09
2023-05-22T22:57:51.585Z,56.05
2023-05-22T23:00:20.223Z,56.01
2023-05-22T23:02:50.012Z,56.12
2023-05-22T23:05:20.531Z,56.06
2023-05-22T23:07:48.761Z,56.06
2023-05-22T23:10:16.825Z,56.08
2023-05-22T23:12:44.768Z,56.01
2023-05-22T23:15:14.128Z,56.03
2023-05-22T23:17:42.260Z,55.99
2023-05-22T23:20:12.592Z,56.18
2023-05-22T23:22:40.515Z,56.14
2023-05-22T23:25:09.087Z,56.25
2023-05-22T23:27:37.471Z,56.16
2023-05-22T23:30:06.342Z,56.26
2023-05-22T23:32:34.379Z,56.09
2023-05-22T23:35:02.378Z,56.30
2023-05-22T23:37:31.796Z,56.48
2023-05-22T23:39:59.809Z,56.87
2023-05-22T23:42:27.781Z,57.28
2023-05-22T23:44:55.761Z,57.45
2023-05-22T23:47:23.782Z,57.32
2023-05-22T23:49:51.775Z,57.59
2023-05-22T23:52:19.818Z,57.45
2023-05-22T23:54:49.176Z,57.67
2023-05-22T23:57:17.229Z,57.62
2023-05-22T23:59:45.192Z,57.67
